Milwaukee, Wisconsin
Traffic Map
Current Weather Conditions
Milwaukee, Wisconsin
Overcast Haze
Overcast
20°
Feels Like: 20°
Wind Chill: 20° Ceiling: 300
Heat Index: 20° Visibility: 2mi
Dew Point: 20° Wind: 10mph
Humidity: 100% Direction: 150° (SSE)
Pressure: 29.92in Gusts: 0mph
Raw Report DataKMKE 201252Z 15009KT 2SM BR OVC003 20/20 A2992 RMK AO2 SLP130 T02000200
Traffic Incident Summary
Active as of:
Severity:
Category:
InformationThere was an issue retrieving the traffic information for this location. Please try a different location or try again shortly.
Advertisements